Time;durP1;ratioP1;P1;durP2;ratioP2;P2;SDS_P1;SDS_P2;PMS_P1;PMS_P2;Temp;Humidity;BMP_temperature;BMP_pressure;BME280_temperature;BME280_humidity;BME280_pressure;Samples;Min_cycle;Max_cycle;Signal;HPM_P1;HPM_P2
2022/06/05 00:01:27;;;;;;;0.30;0.30;;;;;;;;;;5093975;28;20036;-71
2022/06/05 00:04:02;;;;;;;0.20;0.20;;;;;;;;;;5093805;28;20042;-71
2022/06/05 00:06:32;;;;;;;0.10;0.10;;;;;;;;;;5077912;28;20107;-72
2022/06/05 00:09:17;;;;;;;0.30;0.30;;;;;;;;;;5105396;28;20088;-70
2022/06/05 00:11:46;;;;;;;0.22;0.22;;;;;;;;;;5114310;28;20100;-69
2022/06/05 00:14:11;;;;;;;0.30;0.30;;;;;;;;;;5096018;28;20035;-73
2022/06/05 00:16:37;;;;;;;0.25;0.25;;;;;;;;;;5114080;28;20032;-71
2022/06/05 00:19:03;;;;;;;0.22;0.22;;;;;;;;;;5114160;28;20071;-72
2022/06/05 00:21:28;;;;;;;0.20;0.20;;;;;;;;;;5114352;28;20098;-70
2022/06/05 00:23:54;;;;;;;0.88;0.82;;;;;;;;;;5114080;28;20119;-70
2022/06/05 00:26:38;;;;;;;0.20;0.20;;;;;;;;;;5095862;28;20027;-71
2022/06/05 00:29:07;;;;;;;0.25;0.25;;;;;;;;;;5102142;28;20391;-73
2022/06/05 00:31:32;;;;;;;0.20;0.20;;;;;;;;;;5095704;28;20059;-72
2022/06/05 00:33:57;;;;;;;0.80;0.77;;;;;;;;;;5114037;28;20086;-72
2022/06/05 00:36:26;;;;;;;0.30;0.30;;;;;;;;;;5095549;28;20447;-72
2022/06/05 00:38:57;;;;;;;0.20;0.20;;;;;;;;;;5095856;28;20054;-72
2022/06/05 00:41:46;;;;;;;0.25;0.25;;;;;;;;;;5113883;28;20031;-72
2022/06/05 00:44:14;;;;;;;0.20;0.20;;;;;;;;;;5114295;28;20138;-72
2022/06/05 00:46:41;;;;;;;34.05;28.63;;;;;;;;;;5095669;28;20031;-72
2022/06/05 00:49:07;;;;;;;0.30;0.30;;;;;;;;;;5095906;28;20027;-73
2022/06/05 00:51:32;;;;;;;3.03;1.25;;;;;;;;;;5114063;28;20039;-72
2022/06/05 00:53:58;;;;;;;0.20;0.20;;;;;;;;;;5114004;28;20039;-71
2022/06/05 00:56:24;;;;;;;0.20;0.20;;;;;;;;;;5113759;28;20529;-73
2022/06/05 00:58:51;;;;;;;0.20;0.20;;;;;;;;;;5113684;28;20031;-72
2022/06/05 01:01:16;;;;;;;0.20;0.20;;;;;;;;;;5112821;28;20020;-73
2022/06/05 01:03:42;;;;;;;2.47;2.38;;;;;;;;;;5113485;28;20027;-74
2022/06/05 01:06:07;;;;;;;0.30;0.30;;;;;;;;;;5113790;28;20028;-73
2022/06/05 01:08:33;;;;;;;0.45;0.45;;;;;;;;;;5112735;28;20383;-73
2022/06/05 01:10:58;;;;;;;0.30;0.30;;;;;;;;;;5113312;28;20047;-72
2022/06/05 01:13:41;;;;;;;2.95;0.88;;;;;;;;;;5113591;28;20043;-72
2022/06/05 01:16:19;;;;;;;0.20;0.20;;;;;;;;;;5113701;28;20028;-73
2022/06/05 01:18:53;;;;;;;1.05;1.05;;;;;;;;;;5113240;28;20028;-72
2022/06/05 01:21:37;;;;;;;2.05;1.95;;;;;;;;;;5094863;28;20031;-72
2022/06/05 01:24:08;;;;;;;0.20;0.20;;;;;;;;;;5113142;28;20169;-72
2022/06/05 01:26:37;;;;;;;0.20;0.20;;;;;;;;;;5094886;28;20036;-65
2022/06/05 01:29:05;;;;;;;0.22;0.22;;;;;;;;;;5078145;28;20089;-65
2022/06/05 01:31:43;;;;;;;0.20;0.20;;;;;;;;;;5078060;28;20130;-66
2022/06/05 01:34:08;;;;;;;0.30;0.30;;;;;;;;;;5095019;28;20089;-66
2022/06/05 01:36:42;;;;;;;0.30;0.30;;;;;;;;;;5113208;28;20059;-66
2022/06/05 01:39:14;;;;;;;0.20;0.20;;;;;;;;;;5095036;28;20476;-65
2022/06/05 01:41:50;;;;;;;14.25;1.58;;;;;;;;;;5112949;28;20119;-66
2022/06/05 01:44:19;;;;;;;0.25;0.25;;;;;;;;;;5077680;28;20043;-65
2022/06/05 01:46:45;;;;;;;0.20;0.20;;;;;;;;;;5094765;28;20039;-65
2022/06/05 01:49:37;;;;;;;0.47;0.47;;;;;;;;;;5094798;28;20479;-65
2022/06/05 01:52:06;;;;;;;0.20;0.20;;;;;;;;;;5091022;28;20051;-65
2022/06/05 01:54:45;;;;;;;1.27;1.05;;;;;;;;;;5112835;28;20036;-66
2022/06/05 01:57:12;;;;;;;0.30;0.30;;;;;;;;;;5094888;28;20035;-66
2022/06/05 01:59:40;;;;;;;0.20;0.20;;;;;;;;;;5094545;28;20075;-66
2022/06/05 02:02:09;;;;;;;0.23;0.23;;;;;;;;;;5094553;28;20034;-65
2022/06/05 02:04:37;;;;;;;0.20;0.20;;;;;;;;;;5094480;28;20023;-65
2022/06/05 02:07:07;;;;;;;1.00;1.00;;;;;;;;;;5077607;28;20160;-65
2022/06/05 02:09:38;;;;;;;0.28;0.28;;;;;;;;;;5094587;28;20510;-65
2022/06/05 02:12:05;;;;;;;0.20;0.20;;;;;;;;;;5077821;28;20036;-65
2022/06/05 02:14:30;;;;;;;0.32;0.32;;;;;;;;;;5077685;28;20035;-65
2022/06/05 02:16:57;;;;;;;0.20;0.20;;;;;;;;;;5112876;28;20024;-65
2022/06/05 02:19:23;;;;;;;0.30;0.30;;;;;;;;;;5077570;28;20028;-66
2022/06/05 02:21:49;;;;;;;0.30;0.30;;;;;;;;;;5115361;28;20038;-66
2022/06/05 02:24:14;;;;;;;0.20;0.20;;;;;;;;;;5082318;28;20475;-66
2022/06/05 02:26:41;;;;;;;0.20;0.20;;;;;;;;;;5126276;28;20036;-66
2022/06/05 02:29:15;;;;;;;0.30;0.30;;;;;;;;;;5090180;28;20067;-66
2022/06/05 02:31:40;;;;;;;0.20;0.20;;;;;;;;;;5100113;28;20028;-66
2022/06/05 02:34:11;;;;;;;0.20;0.20;;;;;;;;;;5116511;28;20360;-65
2022/06/05 02:36:43;;;;;;;0.20;0.20;;;;;;;;;;5097491;28;20562;-64
2022/06/05 02:39:09;;;;;;;0.20;0.20;;;;;;;;;;5097753;28;20085;-64
2022/06/05 02:41:38;;;;;;;4.63;4.32;;;;;;;;;;5116061;28;20032;-65
2022/06/05 02:44:33;;;;;;;0.20;0.20;;;;;;;;;;5097743;28;20035;-66
2022/06/05 02:46:58;;;;;;;0.30;0.30;;;;;;;;;;5115991;28;20498;-66
2022/06/05 02:49:44;;;;;;;0.20;0.20;;;;;;;;;;5080687;28;20040;-66
2022/06/05 02:52:10;;;;;;;0.20;0.20;;;;;;;;;;5101525;28;20036;-66
2022/06/05 02:54:50;;;;;;;0.20;0.20;;;;;;;;;;5115742;28;20035;-66
2022/06/05 02:57:16;;;;;;;0.68;0.68;;;;;;;;;;5097644;28;20054;-66
2022/06/05 02:59:41;;;;;;;0.30;0.30;;;;;;;;;;5080388;28;20563;-66
2022/06/05 03:04:51;;;;;;;0.20;0.20;;;;;;;;;;5091494;28;20036;-66
2022/06/05 03:07:16;;;;;;;0.30;0.30;;;;;;;;;;5090919;28;20039;-67
2022/06/05 03:09:42;;;;;;;0.20;0.20;;;;;;;;;;5091061;28;20032;-66
2022/06/05 03:12:08;;;;;;;0.30;0.30;;;;;;;;;;5090371;28;20032;-67
2022/06/05 03:14:33;;;;;;;0.30;0.30;;;;;;;;;;5090953;28;20050;-68
2022/06/05 03:16:59;;;;;;;0.20;0.20;;;;;;;;;;5072816;28;20116;-67
2022/06/05 03:19:24;;;;;;;0.30;0.30;;;;;;;;;;5090996;28;20032;-66
2022/06/05 03:21:50;;;;;;;0.50;0.50;;;;;;;;;;5090884;28;20115;-67
2022/06/05 03:24:16;;;;;;;0.40;0.40;;;;;;;;;;5073017;28;20456;-66
2022/06/05 03:26:41;;;;;;;0.30;0.30;;;;;;;;;;5090566;28;20081;-67
2022/06/05 03:29:07;;;;;;;0.32;0.32;;;;;;;;;;5089236;28;20035;-67
2022/06/05 03:31:36;;;;;;;0.20;0.20;;;;;;;;;;5072030;28;20119;-66
2022/06/05 03:34:01;;;;;;;0.60;0.60;;;;;;;;;;5089242;28;20042;-66
2022/06/05 03:39:55;;;;;;;0.30;0.30;;;;;;;;;;5090568;28;20553;-66
2022/06/05 03:42:22;;;;;;;0.22;0.22;;;;;;;;;;5090591;28;20329;-66
2022/06/05 03:44:47;;;;;;;0.20;0.20;;;;;;;;;;5091009;28;20093;-66
2022/06/05 03:47:13;;;;;;;0.77;0.63;;;;;;;;;;5092683;28;20040;-67
2022/06/05 03:49:39;;;;;;;0.20;0.20;;;;;;;;;;5092129;28;20038;-67
2022/06/05 03:52:05;;;;;;;0.30;0.30;;;;;;;;;;5092285;28;20034;-68
2022/06/05 03:54:31;;;;;;;1.20;1.10;;;;;;;;;;5092508;28;20077;-66
2022/06/05 03:56:57;;;;;;;0.22;0.22;;;;;;;;;;5092367;28;20032;-67
2022/06/05 03:59:23;;;;;;;0.30;0.30;;;;;;;;;;5110521;28;20110;-67
2022/06/05 04:01:48;;;;;;;0.20;0.20;;;;;;;;;;5109957;28;20498;-66
2022/06/05 04:04:14;;;;;;;0.20;0.20;;;;;;;;;;5091855;28;20023;-66
2022/06/05 04:06:40;;;;;;;0.20;0.20;;;;;;;;;;5092061;28;20096;-66
2022/06/05 04:09:06;;;;;;;0.28;0.28;;;;;;;;;;5110729;28;20035;-66
2022/06/05 04:11:34;;;;;;;0.20;0.20;;;;;;;;;;5092346;28;20088;-66
2022/06/05 04:13:59;;;;;;;0.30;0.30;;;;;;;;;;5075293;28;20101;-66
2022/06/05 04:16:26;;;;;;;0.73;0.73;;;;;;;;;;5092429;28;20027;-66
2022/06/05 04:18:52;;;;;;;0.22;0.22;;;;;;;;;;5110127;28;20157;-67
2022/06/05 04:21:22;;;;;;;0.20;0.20;;;;;;;;;;5092326;28;20491;-66
2022/06/05 04:23:48;;;;;;;0.50;0.50;;;;;;;;;;5092093;28;20130;-67
2022/06/05 04:26:15;;;;;;;0.20;0.20;;;;;;;;;;5110443;28;20134;-66
2022/06/05 04:28:41;;;;;;;0.30;0.30;;;;;;;;;;5091431;28;20032;-66
2022/06/05 04:31:26;;;;;;;0.20;0.20;;;;;;;;;;5110384;28;20031;-66
2022/06/05 04:33:53;;;;;;;0.30;0.30;;;;;;;;;;5091665;28;20050;-65
2022/06/05 04:36:19;;;;;;;9.63;1.95;;;;;;;;;;5109127;28;20140;-65
2022/06/05 04:38:45;;;;;;;0.98;0.98;;;;;;;;;;5110151;28;20387;-67
2022/06/05 04:41:10;;;;;;;0.20;0.20;;;;;;;;;;5075435;28;20035;-66
2022/06/05 04:43:36;;;;;;;0.25;0.25;;;;;;;;;;5091013;28;20039;-66
2022/06/05 04:46:03;;;;;;;0.20;0.20;;;;;;;;;;5091704;28;20387;-65
2022/06/05 04:48:28;;;;;;;2.85;2.72;;;;;;;;;;5093018;28;20502;-65
2022/06/05 04:50:54;;;;;;;0.43;0.43;;;;;;;;;;5110864;28;20035;-66
2022/06/05 04:53:19;;;;;;;1.77;1.75;;;;;;;;;;5109244;28;20441;-65
2022/06/05 04:55:45;;;;;;;0.20;0.20;;;;;;;;;;5110065;28;20035;-65
2022/06/05 04:58:11;;;;;;;0.30;0.30;;;;;;;;;;5109294;28;20023;-67
2022/06/05 05:00:36;;;;;;;0.20;0.20;;;;;;;;;;5109030;28;20031;-66
2022/06/05 05:03:02;;;;;;;0.30;0.30;;;;;;;;;;5073773;28;20030;-66
2022/06/05 05:05:27;;;;;;;0.20;0.20;;;;;;;;;;5109130;28;20058;-67
2022/06/05 05:07:53;;;;;;;0.28;0.28;;;;;;;;;;5109379;28;20047;-66
2022/06/05 05:10:18;;;;;;;0.28;0.28;;;;;;;;;;5109008;28;20031;-65
2022/06/05 05:12:45;;;;;;;0.30;0.30;;;;;;;;;;5091624;28;20031;-65
2022/06/05 05:15:11;;;;;;;0.28;0.28;;;;;;;;;;5090906;28;20036;-66
2022/06/05 05:17:36;;;;;;;0.20;0.20;;;;;;;;;;5089761;28;20076;-68
2022/06/05 05:20:02;;;;;;;0.30;0.30;;;;;;;;;;5107001;28;20147;-67
2022/06/05 05:22:27;;;;;;;0.40;0.40;;;;;;;;;;5106326;28;20792;-67
2022/06/05 05:24:53;;;;;;;0.20;0.20;;;;;;;;;;5107453;28;20509;-66
2022/06/05 05:27:19;;;;;;;7.88;4.60;;;;;;;;;;5088953;28;20038;-67
2022/06/05 05:29:45;;;;;;;0.20;0.20;;;;;;;;;;5081141;28;20069;-67
2022/06/05 05:32:10;;;;;;;6.32;3.47;;;;;;;;;;5095552;28;20063;-67
2022/06/05 05:34:36;;;;;;;0.20;0.20;;;;;;;;;;5052178;28;20115;-67
2022/06/05 05:37:02;;;;;;;0.20;0.20;;;;;;;;;;5068755;28;20038;-67
2022/06/05 05:42:12;;;;;;;0.20;0.20;;;;;;;;;;5106617;28;20160;-66
2022/06/05 05:44:40;;;;;;;0.70;0.70;;;;;;;;;;5072071;28;20071;-66
2022/06/05 05:47:06;;;;;;;4.70;4.07;;;;;;;;;;5107089;28;20050;-67
2022/06/05 05:49:32;;;;;;;0.70;0.70;;;;;;;;;;5107019;28;20047;-67
2022/06/05 05:51:58;;;;;;;5.78;1.70;;;;;;;;;;5087783;28;20032;-67
2022/06/05 05:54:23;;;;;;;0.25;0.25;;;;;;;;;;5105832;28;20164;-66
2022/06/05 05:56:51;;;;;;;0.20;0.20;;;;;;;;;;5088874;28;20059;-66
2022/06/05 05:59:16;;;;;;;0.20;0.20;;;;;;;;;;5088360;28;20059;-66
2022/06/05 06:01:42;;;;;;;0.20;0.20;;;;;;;;;;5087953;28;20047;-68
2022/06/05 06:04:08;;;;;;;0.77;0.77;;;;;;;;;;5106837;28;20032;-67
2022/06/05 06:06:34;;;;;;;0.20;0.20;;;;;;;;;;5088182;28;20031;-66
2022/06/05 06:09:00;;;;;;;2.83;2.58;;;;;;;;;;5071592;28;20501;-66
2022/06/05 06:11:26;;;;;;;0.20;0.20;;;;;;;;;;5105916;28;20110;-68
2022/06/05 06:13:51;;;;;;;0.20;0.20;;;;;;;;;;5087039;28;20030;-66
2022/06/05 06:16:17;;;;;;;0.20;0.20;;;;;;;;;;5075613;28;20027;-66
2022/06/05 06:18:42;;;;;;;0.80;0.80;;;;;;;;;;5087717;28;20054;-67
2022/06/05 06:21:08;;;;;;;0.20;0.20;;;;;;;;;;5106668;28;20032;-67
2022/06/05 06:23:33;;;;;;;0.30;0.30;;;;;;;;;;5088931;28;20039;-65
2022/06/05 06:25:59;;;;;;;0.38;0.38;;;;;;;;;;5106525;28;20438;-65
2022/06/05 06:28:24;;;;;;;0.20;0.20;;;;;;;;;;5106242;28;20102;-66
2022/06/05 06:30:50;;;;;;;0.20;0.20;;;;;;;;;;5071248;28;20081;-63
2022/06/05 06:33:15;;;;;;;0.20;0.20;;;;;;;;;;5089560;28;20122;-67
2022/06/05 06:35:41;;;;;;;4.38;2.20;;;;;;;;;;5108175;28;20061;-65
2022/06/05 06:38:07;;;;;;;0.77;0.77;;;;;;;;;;5089371;28;20465;-67
2022/06/05 06:40:34;;;;;;;0.25;0.25;;;;;;;;;;5106822;28;20035;-67
2022/06/05 06:43:00;;;;;;;0.30;0.30;;;;;;;;;;5070722;28;20376;-66
2022/06/05 06:45:25;;;;;;;0.20;0.20;;;;;;;;;;5085451;28;20042;-66
2022/06/05 06:47:51;;;;;;;0.30;0.30;;;;;;;;;;5097206;28;20088;-66
2022/06/05 06:50:17;;;;;;;0.32;0.32;;;;;;;;;;5106344;28;20032;-66
2022/06/05 06:52:42;;;;;;;0.30;0.30;;;;;;;;;;5105939;28;20032;-66
2022/06/05 06:55:11;;;;;;;0.20;0.20;;;;;;;;;;5098537;28;20042;-67
2022/06/05 06:57:36;;;;;;;0.30;0.30;;;;;;;;;;5096783;28;20023;-66
2022/06/05 07:00:03;;;;;;;0.47;0.47;;;;;;;;;;5095062;28;20035;-66
2022/06/05 07:02:29;;;;;;;0.40;0.40;;;;;;;;;;5056141;28;20028;-66
2022/06/05 07:04:54;;;;;;;4.30;1.10;;;;;;;;;;5086102;28;20036;-66
2022/06/05 07:07:19;;;;;;;4.30;0.75;;;;;;;;;;5087257;28;20514;-66
2022/06/05 07:09:45;;;;;;;1.08;1.08;;;;;;;;;;5091940;28;20028;-66
2022/06/05 07:12:10;;;;;;;0.43;0.43;;;;;;;;;;5100519;28;20028;-68
2022/06/05 07:14:36;;;;;;;24.90;1.77;;;;;;;;;;5108654;28;20394;-67
2022/06/05 07:17:01;;;;;;;0.40;0.40;;;;;;;;;;5074290;28;20035;-67
2022/06/05 07:19:27;;;;;;;0.40;0.40;;;;;;;;;;5108930;28;20398;-66
2022/06/05 07:21:52;;;;;;;4.82;2.38;;;;;;;;;;5107774;28;20485;-66
2022/06/05 07:24:18;;;;;;;0.30;0.30;;;;;;;;;;5109613;28;20500;-67
2022/06/05 07:26:43;;;;;;;0.30;0.30;;;;;;;;;;5091310;28;20031;-68
2022/06/05 07:29:09;;;;;;;0.43;0.43;;;;;;;;;;5101372;28;20042;-65
2022/06/05 07:31:34;;;;;;;0.30;0.30;;;;;;;;;;5108845;28;20043;-65
2022/06/05 07:34:00;;;;;;;0.50;0.50;;;;;;;;;;5108993;28;20031;-65
2022/06/05 07:36:26;;;;;;;0.43;0.43;;;;;;;;;;5089269;28;20047;-65
2022/06/05 07:38:53;;;;;;;0.40;0.40;;;;;;;;;;5073636;28;20059;-64
2022/06/05 07:41:23;;;;;;;0.40;0.40;;;;;;;;;;5090696;28;20035;-66
2022/06/05 07:43:49;;;;;;;3.25;2.03;;;;;;;;;;5108934;28;20095;-66
2022/06/05 07:46:14;;;;;;;2.88;2.67;;;;;;;;;;5073922;28;20023;-64
2022/06/05 07:48:40;;;;;;;0.40;0.40;;;;;;;;;;5108818;28;20071;-65
2022/06/05 07:56:35;;;;;;;0.50;0.50;;;;;;;;;;5090734;28;20478;-65
2022/06/05 07:59:01;;;;;;;5.63;5.25;;;;;;;;;;5108727;28;20035;-64
2022/06/05 08:01:27;;;;;;;0.38;0.38;;;;;;;;;;5107930;28;20770;-65
2022/06/05 08:03:53;;;;;;;0.40;0.40;;;;;;;;;;5109182;28;20047;-66
2022/06/05 08:06:18;;;;;;;0.47;0.47;;;;;;;;;;5108144;28;20036;-66
2022/06/05 08:08:44;;;;;;;0.40;0.40;;;;;;;;;;5106605;28;20143;-66
2022/06/05 08:11:09;;;;;;;0.50;0.50;;;;;;;;;;5062417;28;20028;-66
2022/06/05 08:13:35;;;;;;;0.30;0.30;;;;;;;;;;5089557;28;20032;-66
2022/06/05 08:16:00;;;;;;;0.40;0.40;;;;;;;;;;5105405;28;20374;-65
2022/06/05 08:18:26;;;;;;;0.50;0.50;;;;;;;;;;5098616;28;20390;-66
2022/06/05 08:20:51;;;;;;;0.43;0.43;;;;;;;;;;5089827;28;20087;-65
2022/06/05 08:23:17;;;;;;;0.60;0.60;;;;;;;;;;5108736;28;20498;-66
2022/06/05 08:25:43;;;;;;;0.50;0.50;;;;;;;;;;5108375;28;20462;-67
2022/06/05 08:28:10;;;;;;;0.50;0.50;;;;;;;;;;5087483;28;20122;-67
2022/06/05 08:30:37;;;;;;;2.53;2.33;;;;;;;;;;5103305;28;20031;-68
2022/06/05 08:33:04;;;;;;;0.40;0.40;;;;;;;;;;5073125;28;20502;-67
2022/06/05 08:35:29;;;;;;;0.60;0.60;;;;;;;;;;5108265;28;20078;-66
2022/06/05 08:43:37;;;;;;;0.60;0.60;;;;;;;;;;5085785;28;20064;-67
2022/06/05 08:46:17;;;;;;;0.50;0.50;;;;;;;;;;5086072;28;20039;-67
2022/06/05 08:48:53;;;;;;;0.50;0.50;;;;;;;;;;5084394;28;20040;-67
2022/06/05 08:51:30;;;;;;;0.40;0.40;;;;;;;;;;5066496;28;20078;-66
2022/06/05 08:53:57;;;;;;;0.50;0.50;;;;;;;;;;5066157;28;20035;-66
2022/06/05 08:56:27;;;;;;;0.50;0.50;;;;;;;;;;5050003;28;20063;-67
2022/06/05 08:58:56;;;;;;;2.40;1.60;;;;;;;;;;5066778;28;20036;-67
2022/06/05 09:01:26;;;;;;;0.60;0.60;;;;;;;;;;5051223;28;20051;-66
2022/06/05 09:04:03;;;;;;;0.50;0.50;;;;;;;;;;5052731;28;20046;-66
2022/06/05 09:06:28;;;;;;;0.52;0.52;;;;;;;;;;5086887;28;20040;-66
2022/06/05 09:08:55;;;;;;;0.43;0.43;;;;;;;;;;5087197;28;20036;-65
2022/06/05 09:11:31;;;;;;;0.70;0.70;;;;;;;;;;5052322;28;20452;-66
2022/06/05 09:13:59;;;;;;;0.50;0.50;;;;;;;;;;5052392;28;20028;-68
2022/06/05 09:16:26;;;;;;;0.52;0.52;;;;;;;;;;5087130;28;20579;-65
2022/06/05 09:18:52;;;;;;;0.47;0.47;;;;;;;;;;5068728;28;20751;-67
2022/06/05 09:21:20;;;;;;;0.60;0.60;;;;;;;;;;5087793;28;20044;-65
2022/06/05 09:23:51;;;;;;;0.55;0.55;;;;;;;;;;5052446;28;20028;-65
2022/06/05 09:26:24;;;;;;;0.50;0.50;;;;;;;;;;5068752;28;20068;-66
2022/06/05 09:28:53;;;;;;;0.47;0.47;;;;;;;;;;5051972;28;20032;-65
2022/06/05 09:31:18;;;;;;;0.60;0.60;;;;;;;;;;5086539;28;20039;-66
2022/06/05 09:33:44;;;;;;;23.80;4.60;;;;;;;;;;5086866;28;20570;-67
2022/06/05 09:36:13;;;;;;;0.70;0.70;;;;;;;;;;5086824;28;20032;-67
2022/06/05 09:38:40;;;;;;;0.60;0.60;;;;;;;;;;5051483;28;20495;-65
2022/06/05 09:41:25;;;;;;;4.43;1.75;;;;;;;;;;5051083;28;20030;-65
2022/06/05 09:43:59;;;;;;;1.50;0.95;;;;;;;;;;5081769;28;20514;-66
2022/06/05 09:46:25;;;;;;;1.02;0.80;;;;;;;;;;5087617;28;20066;-66
2022/06/05 09:49:00;;;;;;;0.40;0.40;;;;;;;;;;5088862;28;20059;-66
2022/06/05 09:51:26;;;;;;;0.50;0.50;;;;;;;;;;5070385;28;20114;-67
2022/06/05 09:53:58;;;;;;;0.50;0.50;;;;;;;;;;5088592;28;20044;-65
2022/06/05 09:56:23;;;;;;;0.50;0.50;;;;;;;;;;5053880;28;20471;-67
2022/06/05 09:58:51;;;;;;;0.40;0.40;;;;;;;;;;5088491;28;20157;-65
2022/06/05 10:01:23;;;;;;;2.33;1.25;;;;;;;;;;5053684;28;20039;-65
2022/06/05 10:03:49;;;;;;;0.40;0.40;;;;;;;;;;5088617;28;20044;-65
2022/06/05 10:06:20;;;;;;;0.60;0.60;;;;;;;;;;5053478;28;20032;-65
2022/06/05 10:08:55;;;;;;;10.63;5.93;;;;;;;;;;5088551;28;20111;-65
2022/06/05 10:11:42;;;;;;;3.42;3.22;;;;;;;;;;5070527;28;20392;-65
2022/06/05 10:14:31;;;;;;;0.80;0.80;;;;;;;;;;5079010;28;20046;-66
2022/06/05 10:17:06;;;;;;;0.52;0.52;;;;;;;;;;5057633;28;20074;-65
2022/06/05 10:19:45;;;;;;;0.68;0.68;;;;;;;;;;5079435;28;20035;-66
2022/06/05 10:22:19;;;;;;;0.98;0.88;;;;;;;;;;5071146;28;20540;-65
2022/06/05 10:24:48;;;;;;;2.25;0.75;;;;;;;;;;5066505;28;20032;-66
2022/06/05 10:27:15;;;;;;;6.45;1.45;;;;;;;;;;5054164;28;20545;-66
2022/06/05 10:29:46;;;;;;;0.70;0.70;;;;;;;;;;5064188;28;20032;-66
2022/06/05 10:32:18;;;;;;;0.40;0.40;;;;;;;;;;5069939;28;20032;-65
2022/06/05 10:34:43;;;;;;;0.70;0.70;;;;;;;;;;5069895;28;20491;-65
2022/06/05 10:37:39;;;;;;;1.63;1.52;;;;;;;;;;5088140;28;20063;-65
2022/06/05 10:40:39;;;;;;;2.63;1.52;;;;;;;;;;5074739;28;20063;-67
2022/06/05 10:43:13;;;;;;;1.77;1.67;;;;;;;;;;5012684;28;20048;-67
2022/06/05 10:45:49;;;;;;;1.73;0.88;;;;;;;;;;5067337;28;20040;-66
2022/06/05 10:48:25;;;;;;;1.15;0.40;;;;;;;;;;5084261;28;20036;-67
2022/06/05 10:50:57;;;;;;;0.75;0.75;;;;;;;;;;5117976;28;20053;-68
2022/06/05 10:53:33;;;;;;;1.52;0.90;;;;;;;;;;5113961;28;20035;-69
2022/06/05 10:56:03;;;;;;;0.63;0.63;;;;;;;;;;5111605;28;20073;-69
2022/06/05 10:58:47;;;;;;;1.10;0.90;;;;;;;;;;5111817;28;20031;-68
2022/06/05 11:01:17;;;;;;;1.60;1.08;;;;;;;;;;5093569;28;20100;-66
2022/06/05 11:03:43;;;;;;;2.80;2.58;;;;;;;;;;5111770;28;20032;-67
2022/06/05 11:06:28;;;;;;;0.75;0.75;;;;;;;;;;5093139;28;20040;-67
2022/06/05 11:08:59;;;;;;;0.98;0.98;;;;;;;;;;5111600;28;20031;-67
2022/06/05 11:14:20;;;;;;;11.45;4.72;;;;;;;;;;5111609;28;20047;-68
2022/06/05 11:16:46;;;;;;;4.25;1.42;;;;;;;;;;5093150;28;20035;-66
2022/06/05 11:19:34;;;;;;;3.40;1.10;;;;;;;;;;5111483;28;20374;-68
2022/06/05 11:21:59;;;;;;;;;;;;;;;;;;5100790;28;20047;-67
2022/06/05 11:24:29;;;;;;;1.10;1.00;;;;;;;;;;5111485;28;19908;-69
2022/06/05 11:27:02;;;;;;;6.95;1.67;;;;;;;;;;5093178;28;20081;-68
2022/06/05 11:29:46;;;;;;;3.60;1.30;;;;;;;;;;5091321;28;20561;-69
2022/06/05 11:32:20;;;;;;;5.00;1.25;;;;;;;;;;5104838;28;20489;-69
2022/06/05 11:34:52;;;;;;;0.55;0.55;;;;;;;;;;5090686;28;20375;-67
2022/06/05 11:37:17;;;;;;;0.45;0.45;;;;;;;;;;5100258;28;20500;-67
2022/06/05 11:40:01;;;;;;;6.82;0.85;;;;;;;;;;5106735;28;20088;-69
2022/06/05 11:42:45;;;;;;;3.22;1.77;;;;;;;;;;5074299;28;20046;-67
2022/06/05 11:45:29;;;;;;;1.88;1.00;;;;;;;;;;5108142;28;20031;-68
2022/06/05 11:48:08;;;;;;;2.60;0.93;;;;;;;;;;5093242;28;20036;-66
2022/06/05 11:50:34;;;;;;;;;;;;;;;;;;5111345;28;20360;-68
2022/06/05 11:53:14;;;;;;;1.00;0.90;;;;;;;;;;5110471;28;19912;-66
2022/06/05 11:55:53;;;;;;;3.75;1.40;;;;;;;;;;5108388;28;20273;-66
2022/06/05 11:58:18;;;;;;;;;;;;;;;;;;5081286;28;20408;-66
2022/06/05 12:00:47;;;;;;;1.17;0.85;;;;;;;;;;5090769;28;19974;-67
2022/06/05 12:03:20;;;;;;;0.50;0.50;;;;;;;;;;5071764;28;20109;-67
2022/06/05 12:05:51;;;;;;;1.35;1.00;;;;;;;;;;5090103;28;20089;-66
2022/06/05 12:08:31;;;;;;;4.60;1.40;;;;;;;;;;5090097;28;20024;-66
2022/06/05 12:11:02;;;;;;;0.73;0.73;;;;;;;;;;5072201;28;20062;-65
2022/06/05 12:13:36;;;;;;;2.50;1.45;;;;;;;;;;5090032;28;20054;-67
2022/06/05 12:16:01;;;;;;;0.40;0.40;;;;;;;;;;5088144;28;20089;-65
2022/06/05 12:18:53;;;;;;;6.55;1.20;;;;;;;;;;5070144;28;20119;-65
2022/06/05 12:21:22;;;;;;;3.38;1.52;;;;;;;;;;5071592;28;20503;-66
2022/06/05 12:23:48;;;;;;;;;;;;;;;;;;5088979;28;20602;-66
2022/06/05 12:26:17;;;;;;;1.77;1.67;;;;;;;;;;5087204;28;19920;-65
2022/06/05 12:28:45;;;;;;;1.27;0.82;;;;;;;;;;5087937;28;20036;-66
2022/06/05 12:31:13;;;;;;;14.20;1.77;;;;;;;;;;5088094;28;20479;-67
2022/06/05 12:33:51;;;;;;;4.50;1.10;;;;;;;;;;5087836;28;20417;-68
2022/06/05 12:36:35;;;;;;;0.67;0.63;;;;;;;;;;5052807;28;20036;-66
2022/06/05 12:39:02;;;;;;;2.67;1.23;;;;;;;;;;5069557;28;20124;-66
2022/06/05 12:41:39;;;;;;;1.55;1.23;;;;;;;;;;5087125;28;20119;-66
2022/06/05 12:44:05;;;;;;;20.92;1.05;;;;;;;;;;5087142;28;20024;-66
2022/06/05 12:46:40;;;;;;;0.30;0.30;;;;;;;;;;5087687;28;20105;-66
2022/06/05 12:49:23;;;;;;;3.78;1.73;;;;;;;;;;5087229;28;20059;-65
2022/06/05 12:52:12;;;;;;;3.22;0.90;;;;;;;;;;5087590;28;20031;-66
2022/06/05 12:54:47;;;;;;;1.58;1.08;;;;;;;;;;5081532;28;20048;-65
2022/06/05 12:57:20;;;;;;;1.27;0.93;;;;;;;;;;5087460;28;20109;-67
2022/06/05 13:00:03;;;;;;;0.70;0.47;;;;;;;;;;5087377;28;20503;-66
2022/06/05 13:02:38;;;;;;;1.63;0.88;;;;;;;;;;5087379;28;20047;-66
2022/06/05 13:05:12;;;;;;;3.28;0.90;;;;;;;;;;5085719;28;20043;-66
2022/06/05 13:08:04;;;;;;;1.58;1.48;;;;;;;;;;5092407;28;20042;-65
2022/06/05 13:10:38;;;;;;;1.30;1.20;;;;;;;;;;5100327;28;20094;-67
2022/06/05 13:13:09;;;;;;;4.22;3.50;;;;;;;;;;5106740;28;20038;-66
2022/06/05 13:15:43;;;;;;;0.30;0.30;;;;;;;;;;5100423;28;20031;-66
2022/06/05 13:18:21;;;;;;;0.32;0.32;;;;;;;;;;5072300;28;20212;-66
2022/06/05 13:21:03;;;;;;;0.40;0.40;;;;;;;;;;5086970;28;20805;-67
2022/06/05 13:23:35;;;;;;;0.43;0.43;;;;;;;;;;5087088;28;20089;-68
2022/06/05 13:26:04;;;;;;;0.93;0.40;;;;;;;;;;5086051;28;20081;-66
2022/06/05 13:28:33;;;;;;;0.40;0.40;;;;;;;;;;5086971;28;20039;-67
2022/06/05 13:31:16;;;;;;;0.40;0.40;;;;;;;;;;5068155;28;20028;-66
2022/06/05 13:33:45;;;;;;;0.45;0.45;;;;;;;;;;5086902;28;20024;-66
2022/06/05 13:36:20;;;;;;;0.38;0.38;;;;;;;;;;5086723;28;20662;-66
2022/06/05 13:38:52;;;;;;;1.27;1.27;;;;;;;;;;5086263;28;20111;-66
2022/06/05 13:41:23;;;;;;;1.65;1.33;;;;;;;;;;5086859;28;20044;-66
2022/06/05 13:44:02;;;;;;;3.05;1.20;;;;;;;;;;5087530;28;20080;-66
2022/06/05 13:46:32;;;;;;;2.38;1.15;;;;;;;;;;5080639;28;20113;-66
2022/06/05 13:48:58;;;;;;;1.05;0.50;;;;;;;;;;5086058;28;20097;-67
2022/06/05 13:51:25;;;;;;;3.95;2.38;;;;;;;;;;5086664;28;20039;-67
2022/06/05 13:54:14;;;;;;;2.60;1.75;;;;;;;;;;5088955;28;20035;-67
2022/06/05 13:57:09;;;;;;;3.03;1.33;;;;;;;;;;5094671;28;20048;-67
2022/06/05 13:59:40;;;;;;;4.32;2.03;;;;;;;;;;5079246;28;20048;-67
2022/06/05 14:02:23;;;;;;;1.70;1.27;;;;;;;;;;5106681;28;20035;-67
2022/06/05 14:04:58;;;;;;;1.15;0.90;;;;;;;;;;5107862;28;20024;-67
2022/06/05 14:07:25;;;;;;;2.58;1.23;;;;;;;;;;5107740;28;20035;-65
2022/06/05 14:10:04;;;;;;;3.22;1.05;;;;;;;;;;5107094;28;20030;-66
2022/06/05 14:12:33;;;;;;;2.50;1.02;;;;;;;;;;5106526;28;20053;-68
2022/06/05 14:15:11;;;;;;;2.15;0.98;;;;;;;;;;5106217;28;20046;-66
2022/06/05 14:17:40;;;;;;;4.15;0.90;;;;;;;;;;5110772;28;20034;-67
2022/06/05 14:20:14;;;;;;;5.32;1.38;;;;;;;;;;5110100;28;20032;-67
2022/06/05 14:22:48;;;;;;;0.60;0.60;;;;;;;;;;5110377;28;20545;-67
2022/06/05 14:25:18;;;;;;;2.15;1.40;;;;;;;;;;5108932;28;20387;-66
2022/06/05 14:27:45;;;;;;;2.15;0.80;;;;;;;;;;5101322;28;20027;-67
2022/06/05 14:30:37;;;;;;;1.17;1.08;;;;;;;;;;5089827;28;20040;-67
2022/06/05 14:33:05;;;;;;;7.05;0.80;;;;;;;;;;5067524;28;20044;-66
2022/06/05 14:35:31;;;;;;;5.53;2.05;;;;;;;;;;5073021;28;20593;-65
2022/06/05 14:38:00;;;;;;;13.73;1.27;;;;;;;;;;5095410;28;20122;-68
2022/06/05 14:40:25;;;;;;;;;;;;;;;;;;5109758;28;20042;-67
2022/06/05 14:43:00;;;;;;;4.43;1.30;;;;;;;;;;5091379;28;19915;-67
2022/06/05 14:45:28;;;;;;;1.05;0.85;;;;;;;;;;5092021;28;20300;-67
2022/06/05 14:48:08;;;;;;;2.63;1.17;;;;;;;;;;5109644;28;20490;-66
2022/06/05 14:50:37;;;;;;;3.33;1.48;;;;;;;;;;5091400;28;20111;-66
2022/06/05 14:53:03;;;;;;;;;;;;;;;;;;5110363;28;20476;-67
2022/06/05 14:58:31;;;;;;;0.60;0.60;;;;;;;;;;5092137;28;20089;-67
2022/06/05 15:01:10;;;;;;;16.75;2.45;;;;;;;;;;5110730;28;20079;-67
2022/06/05 15:03:54;;;;;;;0.73;0.70;;;;;;;;;;5110446;28;20027;-68
2022/06/05 15:06:24;;;;;;;3.67;0.93;;;;;;;;;;5110016;28;20039;-67
2022/06/05 15:08:56;;;;;;;1.67;1.20;;;;;;;;;;5110101;28;20027;-66
2022/06/05 15:11:25;;;;;;;6.55;0.90;;;;;;;;;;5090561;28;20031;-67
2022/06/05 15:14:00;;;;;;;0.30;0.30;;;;;;;;;;5080550;28;20036;-65
2022/06/05 15:16:29;;;;;;;0.22;0.22;;;;;;;;;;5108633;28;20547;-66
2022/06/05 15:18:55;;;;;;;7.57;1.42;;;;;;;;;;5108609;28;20035;-66
2022/06/05 15:21:23;;;;;;;0.30;0.30;;;;;;;;;;5108953;28;20050;-66
2022/06/05 15:24:08;;;;;;;15.77;14.75;;;;;;;;;;5101736;28;20036;-67
2022/06/05 15:26:34;;;;;;;0.40;0.40;;;;;;;;;;5088817;28;20118;-67